sensor_id;sensor_type;location;lat;lon;timestamp;P1;durP1;ratioP1;P2;durP2;ratioP2
25950;SDS011;13748;52.240;6.002;2023-08-20T00:01:33;8.90;;;6.13;;
25950;SDS011;13748;52.240;6.002;2023-08-20T00:04:00;11.48;;;7.35;;
25950;SDS011;13748;52.240;6.002;2023-08-20T00:06:27;12.13;;;8.23;;
25950;SDS011;13748;52.240;6.002;2023-08-20T00:08:55;9.20;;;6.72;;
25950;SDS011;13748;52.240;6.002;2023-08-20T00:11:21;10.00;;;6.55;;
25950;SDS011;13748;52.240;6.002;2023-08-20T00:13:48;8.05;;;6.28;;
25950;SDS011;13748;52.240;6.002;2023-08-20T00:16:15;9.65;;;7.18;;
25950;SDS011;13748;52.240;6.002;2023-08-20T00:18:42;9.85;;;6.53;;
25950;SDS011;13748;52.240;6.002;2023-08-20T00:21:09;7.22;;;6.10;;
25950;SDS011;13748;52.240;6.002;2023-08-20T00:23:37;7.28;;;5.93;;
25950;SDS011;13748;52.240;6.002;2023-08-20T00:26:04;8.75;;;6.28;;
25950;SDS011;13748;52.240;6.002;2023-08-20T00:28:31;8.77;;;6.10;;
25950;SDS011;13748;52.240;6.002;2023-08-20T00:31:03;9.27;;;5.55;;
25950;SDS011;13748;52.240;6.002;2023-08-20T00:33:31;7.70;;;5.45;;
25950;SDS011;13748;52.240;6.002;2023-08-20T00:35:58;9.55;;;5.88;;
25950;SDS011;13748;52.240;6.002;2023-08-20T00:38:25;9.77;;;5.85;;
25950;SDS011;13748;52.240;6.002;2023-08-20T00:40:51;9.88;;;5.80;;
25950;SDS011;13748;52.240;6.002;2023-08-20T00:43:18;7.85;;;5.90;;
25950;SDS011;13748;52.240;6.002;2023-08-20T00:45:45;7.68;;;5.55;;
25950;SDS011;13748;52.240;6.002;2023-08-20T00:48:12;11.88;;;5.70;;
25950;SDS011;13748;52.240;6.002;2023-08-20T00:50:39;7.00;;;5.07;;
25950;SDS011;13748;52.240;6.002;2023-08-20T00:53:08;9.15;;;6.05;;
25950;SDS011;13748;52.240;6.002;2023-08-20T00:55:38;9.55;;;5.93;;
25950;SDS011;13748;52.240;6.002;2023-08-20T00:58:05;9.38;;;5.85;;
25950;SDS011;13748;52.240;6.002;2023-08-20T01:00:32;6.18;;;5.43;;
25950;SDS011;13748;52.240;6.002;2023-08-20T01:02:59;8.20;;;5.32;;
25950;SDS011;13748;52.240;6.002;2023-08-20T01:05:26;8.75;;;5.32;;
25950;SDS011;13748;52.240;6.002;2023-08-20T01:08:21;7.93;;;4.93;;
25950;SDS011;13748;52.240;6.002;2023-08-20T01:11:01;13.40;;;5.97;;
25950;SDS011;13748;52.240;6.002;2023-08-20T01:13:34;8.07;;;5.25;;
25950;SDS011;13748;52.240;6.002;2023-08-20T01:16:01;6.88;;;5.35;;
25950;SDS011;13748;52.240;6.002;2023-08-20T01:18:31;8.07;;;5.90;;
25950;SDS011;13748;52.240;6.002;2023-08-20T01:21:00;8.43;;;5.38;;
25950;SDS011;13748;52.240;6.002;2023-08-20T01:26:32;9.38;;;6.40;;
25950;SDS011;13748;52.240;6.002;2023-08-20T01:29:12;7.53;;;6.10;;
25950;SDS011;13748;52.240;6.002;2023-08-20T01:31:40;7.63;;;6.22;;
25950;SDS011;13748;52.240;6.002;2023-08-20T01:34:08;9.68;;;6.93;;
25950;SDS011;13748;52.240;6.002;2023-08-20T01:36:35;11.10;;;7.03;;
25950;SDS011;13748;52.240;6.002;2023-08-20T01:39:02;10.35;;;6.57;;
25950;SDS011;13748;52.240;6.002;2023-08-20T01:41:31;9.98;;;6.32;;
25950;SDS011;13748;52.240;6.002;2023-08-20T01:43:57;11.07;;;6.30;;
25950;SDS011;13748;52.240;6.002;2023-08-20T01:46:25;8.73;;;5.68;;
25950;SDS011;13748;52.240;6.002;2023-08-20T01:48:53;9.93;;;6.13;;
25950;SDS011;13748;52.240;6.002;2023-08-20T01:51:20;7.90;;;5.65;;
25950;SDS011;13748;52.240;6.002;2023-08-20T01:53:47;10.50;;;6.28;;
25950;SDS011;13748;52.240;6.002;2023-08-20T01:56:14;7.18;;;5.63;;
25950;SDS011;13748;52.240;6.002;2023-08-20T01:58:41;9.57;;;5.57;;
25950;SDS011;13748;52.240;6.002;2023-08-20T02:01:08;7.00;;;5.15;;
25950;SDS011;13748;52.240;6.002;2023-08-20T02:03:35;9.25;;;5.78;;
25950;SDS011;13748;52.240;6.002;2023-08-20T02:06:03;8.40;;;5.65;;
25950;SDS011;13748;52.240;6.002;2023-08-20T02:08:30;6.75;;;5.30;;
25950;SDS011;13748;52.240;6.002;2023-08-20T02:11:01;6.13;;;4.35;;
25950;SDS011;13748;52.240;6.002;2023-08-20T02:13:29;5.72;;;4.47;;
25950;SDS011;13748;52.240;6.002;2023-08-20T02:15:57;5.55;;;4.40;;
25950;SDS011;13748;52.240;6.002;2023-08-20T02:18:26;8.82;;;4.55;;
25950;SDS011;13748;52.240;6.002;2023-08-20T02:20:54;8.77;;;5.28;;
25950;SDS011;13748;52.240;6.002;2023-08-20T02:23:21;8.20;;;5.25;;
25950;SDS011;13748;52.240;6.002;2023-08-20T02:25:48;8.43;;;5.68;;
25950;SDS011;13748;52.240;6.002;2023-08-20T02:28:15;9.45;;;5.75;;
25950;SDS011;13748;52.240;6.002;2023-08-20T02:30:42;12.35;;;5.78;;
25950;SDS011;13748;52.240;6.002;2023-08-20T02:33:10;7.60;;;5.55;;
25950;SDS011;13748;52.240;6.002;2023-08-20T02:35:40;9.13;;;5.20;;
25950;SDS011;13748;52.240;6.002;2023-08-20T02:38:09;11.10;;;5.93;;
25950;SDS011;13748;52.240;6.002;2023-08-20T02:40:40;5.70;;;5.20;;
25950;SDS011;13748;52.240;6.002;2023-08-20T02:43:08;7.50;;;5.85;;
25950;SDS011;13748;52.240;6.002;2023-08-20T02:45:42;8.85;;;5.88;;
25950;SDS011;13748;52.240;6.002;2023-08-20T02:48:10;7.85;;;5.78;;
25950;SDS011;13748;52.240;6.002;2023-08-20T02:50:37;9.45;;;6.13;;
25950;SDS011;13748;52.240;6.002;2023-08-20T02:53:04;7.55;;;5.95;;
25950;SDS011;13748;52.240;6.002;2023-08-20T02:55:32;9.05;;;5.60;;
25950;SDS011;13748;52.240;6.002;2023-08-20T02:57:59;8.98;;;5.43;;
25950;SDS011;13748;52.240;6.002;2023-08-20T03:00:26;7.93;;;5.38;;
25950;SDS011;13748;52.240;6.002;2023-08-20T03:02:53;9.40;;;6.03;;
25950;SDS011;13748;52.240;6.002;2023-08-20T03:05:20;8.40;;;5.82;;
25950;SDS011;13748;52.240;6.002;2023-08-20T03:07:47;7.07;;;5.13;;
25950;SDS011;13748;52.240;6.002;2023-08-20T03:10:13;8.32;;;5.68;;
25950;SDS011;13748;52.240;6.002;2023-08-20T03:12:40;8.75;;;5.45;;
25950;SDS011;13748;52.240;6.002;2023-08-20T03:15:07;11.98;;;5.63;;
25950;SDS011;13748;52.240;6.002;2023-08-20T03:17:34;10.10;;;5.88;;
25950;SDS011;13748;52.240;6.002;2023-08-20T03:20:01;10.23;;;6.10;;
25950;SDS011;13748;52.240;6.002;2023-08-20T03:22:32;8.50;;;6.32;;
25950;SDS011;13748;52.240;6.002;2023-08-20T03:25:00;11.38;;;6.47;;
25950;SDS011;13748;52.240;6.002;2023-08-20T03:27:29;9.57;;;5.55;;
25950;SDS011;13748;52.240;6.002;2023-08-20T03:29:56;7.55;;;5.38;;
25950;SDS011;13748;52.240;6.002;2023-08-20T03:32:23;7.50;;;5.68;;
25950;SDS011;13748;52.240;6.002;2023-08-20T03:34:50;6.85;;;5.05;;
25950;SDS011;13748;52.240;6.002;2023-08-20T03:37:17;6.97;;;5.30;;
25950;SDS011;13748;52.240;6.002;2023-08-20T03:39:44;5.65;;;5.05;;
25950;SDS011;13748;52.240;6.002;2023-08-20T03:42:10;8.93;;;5.30;;
25950;SDS011;13748;52.240;6.002;2023-08-20T03:44:37;7.22;;;4.88;;
25950;SDS011;13748;52.240;6.002;2023-08-20T03:47:04;8.07;;;4.57;;
25950;SDS011;13748;52.240;6.002;2023-08-20T03:49:35;9.65;;;4.93;;
25950;SDS011;13748;52.240;6.002;2023-08-20T03:52:02;8.93;;;5.43;;
25950;SDS011;13748;52.240;6.002;2023-08-20T03:54:29;6.70;;;4.30;;
25950;SDS011;13748;52.240;6.002;2023-08-20T03:56:56;9.75;;;5.13;;
25950;SDS011;13748;52.240;6.002;2023-08-20T03:59:23;6.97;;;4.53;;
25950;SDS011;13748;52.240;6.002;2023-08-20T04:01:50;9.27;;;4.72;;
25950;SDS011;13748;52.240;6.002;2023-08-20T04:04:17;6.40;;;4.30;;
25950;SDS011;13748;52.240;6.002;2023-08-20T04:06:44;8.27;;;4.90;;
25950;SDS011;13748;52.240;6.002;2023-08-20T04:09:11;7.22;;;4.55;;
25950;SDS011;13748;52.240;6.002;2023-08-20T04:11:42;7.93;;;4.82;;
25950;SDS011;13748;52.240;6.002;2023-08-20T04:14:09;6.13;;;4.38;;
25950;SDS011;13748;52.240;6.002;2023-08-20T04:16:36;11.85;;;4.95;;
25950;SDS011;13748;52.240;6.002;2023-08-20T04:19:02;6.38;;;4.60;;
25950;SDS011;13748;52.240;6.002;2023-08-20T04:21:29;6.80;;;5.10;;
25950;SDS011;13748;52.240;6.002;2023-08-20T04:23:56;10.68;;;4.97;;
25950;SDS011;13748;52.240;6.002;2023-08-20T04:26:23;8.05;;;4.63;;
25950;SDS011;13748;52.240;6.002;2023-08-20T04:28:49;7.53;;;4.80;;
25950;SDS011;13748;52.240;6.002;2023-08-20T04:31:16;9.23;;;5.03;;
25950;SDS011;13748;52.240;6.002;2023-08-20T04:33:45;11.23;;;5.25;;
25950;SDS011;13748;52.240;6.002;2023-08-20T04:36:15;9.02;;;5.05;;
25950;SDS011;13748;52.240;6.002;2023-08-20T04:38:41;8.10;;;5.13;;
25950;SDS011;13748;52.240;6.002;2023-08-20T04:41:08;8.70;;;5.05;;
25950;SDS011;13748;52.240;6.002;2023-08-20T04:43:36;6.88;;;4.53;;
25950;SDS011;13748;52.240;6.002;2023-08-20T04:46:03;6.72;;;4.70;;
25950;SDS011;13748;52.240;6.002;2023-08-20T04:48:30;7.47;;;5.05;;
25950;SDS011;13748;52.240;6.002;2023-08-20T04:50:56;6.25;;;4.72;;
25950;SDS011;13748;52.240;6.002;2023-08-20T04:53:25;9.15;;;4.50;;
25950;SDS011;13748;52.240;6.002;2023-08-20T04:55:52;8.40;;;4.63;;
25950;SDS011;13748;52.240;6.002;2023-08-20T04:58:19;6.38;;;4.68;;
25950;SDS011;13748;52.240;6.002;2023-08-20T05:00:47;8.50;;;4.53;;
25950;SDS011;13748;52.240;6.002;2023-08-20T05:03:13;6.45;;;4.55;;
25950;SDS011;13748;52.240;6.002;2023-08-20T05:05:40;6.95;;;4.45;;
25950;SDS011;13748;52.240;6.002;2023-08-20T05:08:07;5.45;;;4.75;;
25950;SDS011;13748;52.240;6.002;2023-08-20T05:10:36;7.25;;;4.38;;
25950;SDS011;13748;52.240;6.002;2023-08-20T05:13:03;10.18;;;4.82;;
25950;SDS011;13748;52.240;6.002;2023-08-20T05:15:30;6.45;;;4.60;;
25950;SDS011;13748;52.240;6.002;2023-08-20T05:17:58;8.88;;;4.70;;
25950;SDS011;13748;52.240;6.002;2023-08-20T05:20:25;6.95;;;4.72;;
25950;SDS011;13748;52.240;6.002;2023-08-20T05:22:52;6.45;;;4.43;;
25950;SDS011;13748;52.240;6.002;2023-08-20T05:25:19;6.47;;;4.88;;
25950;SDS011;13748;52.240;6.002;2023-08-20T05:27:46;7.63;;;4.72;;
25950;SDS011;13748;52.240;6.002;2023-08-20T05:30:13;7.80;;;4.85;;
25950;SDS011;13748;52.240;6.002;2023-08-20T05:32:40;11.32;;;4.82;;
25950;SDS011;13748;52.240;6.002;2023-08-20T05:35:07;7.90;;;4.80;;
25950;SDS011;13748;52.240;6.002;2023-08-20T05:37:34;7.95;;;5.28;;
25950;SDS011;13748;52.240;6.002;2023-08-20T05:40:01;8.65;;;4.85;;
25950;SDS011;13748;52.240;6.002;2023-08-20T05:42:29;11.60;;;5.75;;
25950;SDS011;13748;52.240;6.002;2023-08-20T05:44:55;14.40;;;5.40;;
25950;SDS011;13748;52.240;6.002;2023-08-20T05:47:22;8.07;;;4.88;;
25950;SDS011;13748;52.240;6.002;2023-08-20T05:49:49;10.32;;;5.28;;
25950;SDS011;13748;52.240;6.002;2023-08-20T05:52:16;8.10;;;4.53;;
25950;SDS011;13748;52.240;6.002;2023-08-20T05:54:43;7.78;;;4.75;;
25950;SDS011;13748;52.240;6.002;2023-08-20T05:57:10;6.78;;;4.53;;
25950;SDS011;13748;52.240;6.002;2023-08-20T05:59:36;10.85;;;4.78;;
25950;SDS011;13748;52.240;6.002;2023-08-20T06:02:03;7.35;;;4.60;;
25950;SDS011;13748;52.240;6.002;2023-08-20T06:04:30;8.00;;;4.53;;
25950;SDS011;13748;52.240;6.002;2023-08-20T06:06:57;9.50;;;4.60;;
25950;SDS011;13748;52.240;6.002;2023-08-20T06:09:24;8.23;;;4.07;;
25950;SDS011;13748;52.240;6.002;2023-08-20T06:11:51;7.20;;;4.03;;
25950;SDS011;13748;52.240;6.002;2023-08-20T06:14:18;6.45;;;3.63;;
25950;SDS011;13748;52.240;6.002;2023-08-20T06:16:45;9.50;;;4.30;;
25950;SDS011;13748;52.240;6.002;2023-08-20T06:19:12;8.25;;;3.63;;
25950;SDS011;13748;52.240;6.002;2023-08-20T06:21:39;5.20;;;2.72;;
25950;SDS011;13748;52.240;6.002;2023-08-20T06:24:06;5.38;;;2.42;;
25950;SDS011;13748;52.240;6.002;2023-08-20T06:26:33;6.45;;;2.40;;
25950;SDS011;13748;52.240;6.002;2023-08-20T06:29:00;7.70;;;2.70;;
25950;SDS011;13748;52.240;6.002;2023-08-20T06:31:28;7.32;;;2.28;;
25950;SDS011;13748;52.240;6.002;2023-08-20T06:33:55;9.07;;;2.30;;
25950;SDS011;13748;52.240;6.002;2023-08-20T06:36:22;7.25;;;2.13;;
25950;SDS011;13748;52.240;6.002;2023-08-20T06:38:49;6.95;;;1.85;;
25950;SDS011;13748;52.240;6.002;2023-08-20T06:41:17;4.75;;;2.17;;
25950;SDS011;13748;52.240;6.002;2023-08-20T06:43:44;5.03;;;1.90;;
25950;SDS011;13748;52.240;6.002;2023-08-20T06:46:11;7.00;;;2.00;;
25950;SDS011;13748;52.240;6.002;2023-08-20T06:48:38;3.55;;;1.70;;
25950;SDS011;13748;52.240;6.002;2023-08-20T06:51:12;5.50;;;1.90;;
25950;SDS011;13748;52.240;6.002;2023-08-20T06:53:44;4.75;;;1.70;;
25950;SDS011;13748;52.240;6.002;2023-08-20T06:56:11;8.43;;;1.88;;
25950;SDS011;13748;52.240;6.002;2023-08-20T06:58:38;3.75;;;2.08;;
25950;SDS011;13748;52.240;6.002;2023-08-20T07:01:06;6.03;;;1.77;;
25950;SDS011;13748;52.240;6.002;2023-08-20T07:03:34;5.38;;;1.73;;
25950;SDS011;13748;52.240;6.002;2023-08-20T07:06:05;6.43;;;1.80;;
25950;SDS011;13748;52.240;6.002;2023-08-20T07:08:33;3.88;;;1.50;;
25950;SDS011;13748;52.240;6.002;2023-08-20T07:11:00;5.13;;;1.80;;
25950;SDS011;13748;52.240;6.002;2023-08-20T07:13:27;3.08;;;1.48;;
25950;SDS011;13748;52.240;6.002;2023-08-20T07:15:57;5.65;;;1.88;;
25950;SDS011;13748;52.240;6.002;2023-08-20T07:18:24;4.35;;;1.42;;
25950;SDS011;13748;52.240;6.002;2023-08-20T07:20:51;7.38;;;2.10;;
25950;SDS011;13748;52.240;6.002;2023-08-20T07:23:21;5.65;;;1.30;;
25950;SDS011;13748;52.240;6.002;2023-08-20T07:26:03;5.10;;;1.50;;
25950;SDS011;13748;52.240;6.002;2023-08-20T07:28:34;3.30;;;1.50;;
25950;SDS011;13748;52.240;6.002;2023-08-20T07:31:24;4.68;;;1.67;;
25950;SDS011;13748;52.240;6.002;2023-08-20T07:33:59;4.85;;;1.70;;
25950;SDS011;13748;52.240;6.002;2023-08-20T07:36:34;6.10;;;2.00;;
25950;SDS011;13748;52.240;6.002;2023-08-20T07:39:01;3.95;;;1.25;;
25950;SDS011;13748;52.240;6.002;2023-08-20T07:41:31;4.25;;;1.40;;
25950;SDS011;13748;52.240;6.002;2023-08-20T07:43:58;7.47;;;1.60;;
25950;SDS011;13748;52.240;6.002;2023-08-20T07:46:24;4.30;;;1.50;;
25950;SDS011;13748;52.240;6.002;2023-08-20T07:48:51;4.00;;;1.23;;
25950;SDS011;13748;52.240;6.002;2023-08-20T07:51:18;6.88;;;1.67;;
25950;SDS011;13748;52.240;6.002;2023-08-20T07:53:45;4.72;;;1.60;;
25950;SDS011;13748;52.240;6.002;2023-08-20T07:56:12;5.55;;;1.30;;
25950;SDS011;13748;52.240;6.002;2023-08-20T07:58:39;4.88;;;1.73;;
25950;SDS011;13748;52.240;6.002;2023-08-20T08:01:06;3.05;;;1.23;;
25950;SDS011;13748;52.240;6.002;2023-08-20T08:03:35;2.67;;;0.90;;
25950;SDS011;13748;52.240;6.002;2023-08-20T08:06:04;3.47;;;1.05;;
25950;SDS011;13748;52.240;6.002;2023-08-20T08:08:31;3.22;;;1.17;;
25950;SDS011;13748;52.240;6.002;2023-08-20T08:10:58;1.83;;;0.90;;
25950;SDS011;13748;52.240;6.002;2023-08-20T08:13:26;3.72;;;1.17;;
25950;SDS011;13748;52.240;6.002;2023-08-20T08:15:53;2.60;;;0.90;;
25950;SDS011;13748;52.240;6.002;2023-08-20T08:18:23;1.88;;;1.02;;
25950;SDS011;13748;52.240;6.002;2023-08-20T08:20:50;2.22;;;0.95;;
25950;SDS011;13748;52.240;6.002;2023-08-20T08:23:17;1.77;;;1.10;;
25950;SDS011;13748;52.240;6.002;2023-08-20T08:25:44;4.88;;;1.33;;
25950;SDS011;13748;52.240;6.002;2023-08-20T08:28:11;3.30;;;1.00;;
25950;SDS011;13748;52.240;6.002;2023-08-20T08:30:38;2.85;;;1.17;;
25950;SDS011;13748;52.240;6.002;2023-08-20T08:33:06;4.10;;;1.10;;
25950;SDS011;13748;52.240;6.002;2023-08-20T08:35:35;2.08;;;1.00;;
25950;SDS011;13748;52.240;6.002;2023-08-20T08:38:02;2.53;;;0.90;;
25950;SDS011;13748;52.240;6.002;2023-08-20T08:40:30;4.60;;;1.02;;
25950;SDS011;13748;52.240;6.002;2023-08-20T08:43:00;2.47;;;0.95;;
25950;SDS011;13748;52.240;6.002;2023-08-20T08:45:28;4.45;;;1.23;;
25950;SDS011;13748;52.240;6.002;2023-08-20T08:48:00;3.58;;;0.93;;
25950;SDS011;13748;52.240;6.002;2023-08-20T08:50:28;6.25;;;1.33;;
25950;SDS011;13748;52.240;6.002;2023-08-20T08:52:56;2.35;;;0.82;;
25950;SDS011;13748;52.240;6.002;2023-08-20T08:55:27;3.15;;;0.90;;
25950;SDS011;13748;52.240;6.002;2023-08-20T08:57:54;2.40;;;0.73;;
25950;SDS011;13748;52.240;6.002;2023-08-20T09:00:21;4.07;;;0.90;;
25950;SDS011;13748;52.240;6.002;2023-08-20T09:02:48;3.72;;;1.20;;
25950;SDS011;13748;52.240;6.002;2023-08-20T09:05:15;2.17;;;0.77;;
25950;SDS011;13748;52.240;6.002;2023-08-20T09:07:43;4.72;;;1.35;;
25950;SDS011;13748;52.240;6.002;2023-08-20T09:10:11;2.58;;;0.98;;
25950;SDS011;13748;52.240;6.002;2023-08-20T09:12:38;3.05;;;0.95;;
25950;SDS011;13748;52.240;6.002;2023-08-20T09:15:09;2.63;;;0.75;;
25950;SDS011;13748;52.240;6.002;2023-08-20T09:17:40;3.03;;;0.90;;
25950;SDS011;13748;52.240;6.002;2023-08-20T09:20:09;2.88;;;0.98;;
25950;SDS011;13748;52.240;6.002;2023-08-20T09:22:37;2.88;;;1.02;;
25950;SDS011;13748;52.240;6.002;2023-08-20T09:25:07;1.38;;;0.80;;
25950;SDS011;13748;52.240;6.002;2023-08-20T09:27:44;2.35;;;0.80;;
25950;SDS011;13748;52.240;6.002;2023-08-20T09:30:22;1.85;;;0.70;;
25950;SDS011;13748;52.240;6.002;2023-08-20T09:33:02;2.58;;;0.90;;
25950;SDS011;13748;52.240;6.002;2023-08-20T09:35:50;1.80;;;0.90;;
25950;SDS011;13748;52.240;6.002;2023-08-20T09:38:19;3.13;;;0.98;;
25950;SDS011;13748;52.240;6.002;2023-08-20T09:40:54;3.33;;;0.80;;
25950;SDS011;13748;52.240;6.002;2023-08-20T09:43:29;3.72;;;1.10;;
25950;SDS011;13748;52.240;6.002;2023-08-20T09:45:58;3.28;;;0.75;;
25950;SDS011;13748;52.240;6.002;2023-08-20T09:48:29;2.58;;;0.90;;
25950;SDS011;13748;52.240;6.002;2023-08-20T09:51:04;1.20;;;0.73;;
25950;SDS011;13748;52.240;6.002;2023-08-20T09:56:30;3.10;;;0.68;;
25950;SDS011;13748;52.240;6.002;2023-08-20T09:59:02;2.00;;;0.70;;
25950;SDS011;13748;52.240;6.002;2023-08-20T10:01:30;3.05;;;0.80;;
25950;SDS011;13748;52.240;6.002;2023-08-20T10:03:58;1.55;;;0.50;;
25950;SDS011;13748;52.240;6.002;2023-08-20T10:06:26;1.83;;;0.50;;
25950;SDS011;13748;52.240;6.002;2023-08-20T10:09:12;1.27;;;0.50;;
25950;SDS011;13748;52.240;6.002;2023-08-20T10:11:39;1.77;;;0.88;;
25950;SDS011;13748;52.240;6.002;2023-08-20T10:14:06;1.65;;;0.60;;
25950;SDS011;13748;52.240;6.002;2023-08-20T10:16:34;0.57;;;0.50;;
25950;SDS011;13748;52.240;6.002;2023-08-20T10:19:03;2.10;;;0.82;;
25950;SDS011;13748;52.240;6.002;2023-08-20T10:21:30;3.33;;;0.75;;
25950;SDS011;13748;52.240;6.002;2023-08-20T10:24:08;1.55;;;0.63;;
25950;SDS011;13748;52.240;6.002;2023-08-20T10:26:36;2.50;;;0.73;;
25950;SDS011;13748;52.240;6.002;2023-08-20T10:32:05;1.27;;;0.70;;
25950;SDS011;13748;52.240;6.002;2023-08-20T10:34:38;2.45;;;0.57;;
25950;SDS011;13748;52.240;6.002;2023-08-20T10:37:10;1.45;;;0.57;;
25950;SDS011;13748;52.240;6.002;2023-08-20T10:39:39;1.50;;;0.68;;
25950;SDS011;13748;52.240;6.002;2023-08-20T10:47:44;2.03;;;1.25;;
25950;SDS011;13748;52.240;6.002;2023-08-20T10:50:15;2.17;;;0.60;;
25950;SDS011;13748;52.240;6.002;2023-08-20T10:52:55;2.38;;;0.65;;
25950;SDS011;13748;52.240;6.002;2023-08-20T10:55:25;2.13;;;0.90;;
25950;SDS011;13748;52.240;6.002;2023-08-20T10:57:56;1.15;;;0.52;;
25950;SDS011;13748;52.240;6.002;2023-08-20T11:00:26;2.15;;;0.98;;
25950;SDS011;13748;52.240;6.002;2023-08-20T11:02:54;1.65;;;0.80;;
25950;SDS011;13748;52.240;6.002;2023-08-20T11:05:21;1.98;;;0.75;;
25950;SDS011;13748;52.240;6.002;2023-08-20T11:07:51;1.52;;;0.60;;
25950;SDS011;13748;52.240;6.002;2023-08-20T11:10:19;1.73;;;0.73;;
25950;SDS011;13748;52.240;6.002;2023-08-20T11:12:47;5.47;;;1.02;;
25950;SDS011;13748;52.240;6.002;2023-08-20T11:15:14;2.95;;;0.80;;
25950;SDS011;13748;52.240;6.002;2023-08-20T11:17:47;1.88;;;0.70;;
25950;SDS011;13748;52.240;6.002;2023-08-20T11:20:17;1.25;;;0.40;;
25950;SDS011;13748;52.240;6.002;2023-08-20T11:22:44;4.57;;;0.98;;
25950;SDS011;13748;52.240;6.002;2023-08-20T11:25:11;1.55;;;1.02;;
25950;SDS011;13748;52.240;6.002;2023-08-20T11:27:42;2.15;;;0.75;;
25950;SDS011;13748;52.240;6.002;2023-08-20T11:30:09;2.35;;;0.63;;
25950;SDS011;13748;52.240;6.002;2023-08-20T11:32:42;1.38;;;0.70;;
25950;SDS011;13748;52.240;6.002;2023-08-20T11:35:11;1.92;;;0.70;;
25950;SDS011;13748;52.240;6.002;2023-08-20T11:37:41;3.08;;;0.90;;
25950;SDS011;13748;52.240;6.002;2023-08-20T11:40:09;5.47;;;0.98;;
25950;SDS011;13748;52.240;6.002;2023-08-20T11:42:36;1.70;;;0.75;;
25950;SDS011;13748;52.240;6.002;2023-08-20T11:45:03;1.85;;;0.73;;
25950;SDS011;13748;52.240;6.002;2023-08-20T11:47:30;2.90;;;0.90;;
25950;SDS011;13748;52.240;6.002;2023-08-20T11:50:05;2.60;;;1.20;;
25950;SDS011;13748;52.240;6.002;2023-08-20T11:52:33;3.50;;;1.02;;
25950;SDS011;13748;52.240;6.002;2023-08-20T11:55:01;2.58;;;0.88;;
25950;SDS011;13748;52.240;6.002;2023-08-20T11:57:29;3.28;;;0.88;;
25950;SDS011;13748;52.240;6.002;2023-08-20T12:00:03;3.13;;;0.85;;
25950;SDS011;13748;52.240;6.002;2023-08-20T12:02:38;2.13;;;0.80;;
25950;SDS011;13748;52.240;6.002;2023-08-20T12:05:08;3.30;;;0.95;;
25950;SDS011;13748;52.240;6.002;2023-08-20T12:07:35;4.15;;;0.88;;
25950;SDS011;13748;52.240;6.002;2023-08-20T12:10:19;1.92;;;0.80;;
25950;SDS011;13748;52.240;6.002;2023-08-20T12:12:50;2.92;;;0.73;;
25950;SDS011;13748;52.240;6.002;2023-08-20T12:15:18;2.42;;;0.65;;
25950;SDS011;13748;52.240;6.002;2023-08-20T12:17:58;1.20;;;0.85;;
25950;SDS011;13748;52.240;6.002;2023-08-20T12:20:27;4.35;;;0.90;;
25950;SDS011;13748;52.240;6.002;2023-08-20T12:22:57;1.98;;;0.70;;
25950;SDS011;13748;52.240;6.002;2023-08-20T12:25:25;2.42;;;0.90;;
25950;SDS011;13748;52.240;6.002;2023-08-20T12:27:52;2.03;;;0.85;;
25950;SDS011;13748;52.240;6.002;2023-08-20T12:30:23;2.17;;;0.88;;
25950;SDS011;13748;52.240;6.002;2023-08-20T12:32:50;3.50;;;0.77;;
25950;SDS011;13748;52.240;6.002;2023-08-20T12:35:18;2.40;;;0.70;;
25950;SDS011;13748;52.240;6.002;2023-08-20T12:37:44;2.33;;;0.70;;
25950;SDS011;13748;52.240;6.002;2023-08-20T12:40:12;1.25;;;0.70;;
25950;SDS011;13748;52.240;6.002;2023-08-20T12:42:39;3.08;;;0.88;;
25950;SDS011;13748;52.240;6.002;2023-08-20T12:45:09;1.77;;;0.80;;
25950;SDS011;13748;52.240;6.002;2023-08-20T12:47:39;2.78;;;0.90;;
25950;SDS011;13748;52.240;6.002;2023-08-20T12:50:06;1.52;;;0.63;;
25950;SDS011;13748;52.240;6.002;2023-08-20T12:52:33;3.08;;;1.23;;
25950;SDS011;13748;52.240;6.002;2023-08-20T12:55:01;2.92;;;0.90;;
25950;SDS011;13748;52.240;6.002;2023-08-20T12:57:33;3.70;;;0.90;;
25950;SDS011;13748;52.240;6.002;2023-08-20T13:00:03;1.90;;;0.77;;
25950;SDS011;13748;52.240;6.002;2023-08-20T13:02:37;2.40;;;0.90;;
25950;SDS011;13748;52.240;6.002;2023-08-20T13:05:05;0.85;;;0.75;;
25950;SDS011;13748;52.240;6.002;2023-08-20T13:07:32;2.92;;;0.90;;
25950;SDS011;13748;52.240;6.002;2023-08-20T13:10:00;2.05;;;0.70;;
25950;SDS011;13748;52.240;6.002;2023-08-20T13:12:27;2.22;;;1.00;;
25950;SDS011;13748;52.240;6.002;2023-08-20T13:14:58;2.75;;;1.00;;
25950;SDS011;13748;52.240;6.002;2023-08-20T13:17:26;1.50;;;1.02;;
25950;SDS011;13748;52.240;6.002;2023-08-20T13:19:54;1.83;;;0.80;;
25950;SDS011;13748;52.240;6.002;2023-08-20T13:22:21;3.63;;;0.98;;
25950;SDS011;13748;52.240;6.002;2023-08-20T13:24:48;2.53;;;0.73;;
25950;SDS011;13748;52.240;6.002;2023-08-20T13:27:19;1.02;;;0.75;;
25950;SDS011;13748;52.240;6.002;2023-08-20T13:29:46;3.95;;;0.80;;
25950;SDS011;13748;52.240;6.002;2023-08-20T13:32:17;4.22;;;0.95;;
25950;SDS011;13748;52.240;6.002;2023-08-20T13:34:44;7.18;;;1.00;;
25950;SDS011;13748;52.240;6.002;2023-08-20T13:37:11;3.75;;;1.00;;
25950;SDS011;13748;52.240;6.002;2023-08-20T13:39:39;1.92;;;1.05;;
25950;SDS011;13748;52.240;6.002;2023-08-20T13:42:06;1.88;;;0.73;;
25950;SDS011;13748;52.240;6.002;2023-08-20T13:44:33;2.03;;;0.80;;
25950;SDS011;13748;52.240;6.002;2023-08-20T13:47:00;2.10;;;1.10;;
25950;SDS011;13748;52.240;6.002;2023-08-20T13:49:27;3.63;;;0.93;;
25950;SDS011;13748;52.240;6.002;2023-08-20T13:51:56;1.58;;;0.90;;
25950;SDS011;13748;52.240;6.002;2023-08-20T13:54:23;2.15;;;0.90;;
25950;SDS011;13748;52.240;6.002;2023-08-20T13:56:50;1.40;;;0.82;;
25950;SDS011;13748;52.240;6.002;2023-08-20T13:59:17;2.42;;;0.75;;
25950;SDS011;13748;52.240;6.002;2023-08-20T14:01:44;3.13;;;0.98;;
25950;SDS011;13748;52.240;6.002;2023-08-20T14:04:12;2.30;;;0.98;;
25950;SDS011;13748;52.240;6.002;2023-08-20T14:06:43;3.25;;;1.17;;
25950;SDS011;13748;52.240;6.002;2023-08-20T14:09:10;2.28;;;0.85;;
25950;SDS011;13748;52.240;6.002;2023-08-20T14:11:40;3.17;;;1.05;;
25950;SDS011;13748;52.240;6.002;2023-08-20T14:14:09;2.72;;;1.00;;
25950;SDS011;13748;52.240;6.002;2023-08-20T14:16:40;3.78;;;0.95;;
25950;SDS011;13748;52.240;6.002;2023-08-20T14:19:07;3.65;;;1.00;;
25950;SDS011;13748;52.240;6.002;2023-08-20T14:21:38;2.75;;;0.90;;
25950;SDS011;13748;52.240;6.002;2023-08-20T14:24:05;3.67;;;1.00;;
25950;SDS011;13748;52.240;6.002;2023-08-20T14:26:32;2.50;;;0.80;;
25950;SDS011;13748;52.240;6.002;2023-08-20T14:28:59;4.15;;;0.95;;
25950;SDS011;13748;52.240;6.002;2023-08-20T14:31:27;2.25;;;0.80;;
25950;SDS011;13748;52.240;6.002;2023-08-20T14:33:54;2.65;;;0.90;;
25950;SDS011;13748;52.240;6.002;2023-08-20T14:36:25;3.65;;;1.05;;
25950;SDS011;13748;52.240;6.002;2023-08-20T14:38:52;4.03;;;1.30;;
25950;SDS011;13748;52.240;6.002;2023-08-20T14:41:23;4.82;;;2.13;;
25950;SDS011;13748;52.240;6.002;2023-08-20T14:43:50;2.78;;;0.90;;
25950;SDS011;13748;52.240;6.002;2023-08-20T14:46:17;3.90;;;0.95;;
25950;SDS011;13748;52.240;6.002;2023-08-20T14:48:44;5.57;;;1.35;;
25950;SDS011;13748;52.240;6.002;2023-08-20T14:51:12;4.05;;;0.90;;
25950;SDS011;13748;52.240;6.002;2023-08-20T14:53:39;4.80;;;1.33;;
25950;SDS011;13748;52.240;6.002;2023-08-20T14:56:06;2.83;;;1.00;;
25950;SDS011;13748;52.240;6.002;2023-08-20T14:58:33;2.92;;;1.00;;
25950;SDS011;13748;52.240;6.002;2023-08-20T15:01:00;2.30;;;1.23;;
25950;SDS011;13748;52.240;6.002;2023-08-20T15:03:27;5.60;;;1.38;;
25950;SDS011;13748;52.240;6.002;2023-08-20T15:05:54;3.63;;;0.88;;
25950;SDS011;13748;52.240;6.002;2023-08-20T15:08:22;2.40;;;1.00;;
25950;SDS011;13748;52.240;6.002;2023-08-20T15:10:56;5.15;;;1.10;;